sensor_id;sensor_type;location;lat;lon;timestamp;P1;durP1;ratioP1;P2;durP2;ratioP2
68247;SDS011;55064;49.636;12.164;2023-05-07T00:04:28;11.02;;;6.30;;
68247;SDS011;55064;49.636;12.164;2023-05-07T00:07:00;12.77;;;6.43;;
68247;SDS011;55064;49.636;12.164;2023-05-07T00:09:27;11.83;;;6.27;;
68247;SDS011;55064;49.636;12.164;2023-05-07T00:11:52;10.15;;;6.00;;
68247;SDS011;55064;49.636;12.164;2023-05-07T00:14:20;10.83;;;6.07;;
68247;SDS011;55064;49.636;12.164;2023-05-07T00:16:45;10.65;;;5.97;;
68247;SDS011;55064;49.636;12.164;2023-05-07T00:19:11;9.63;;;5.47;;
68247;SDS011;55064;49.636;12.164;2023-05-07T00:21:37;10.13;;;5.53;;
68247;SDS011;55064;49.636;12.164;2023-05-07T00:24:05;11.13;;;6.17;;
68247;SDS011;55064;49.636;12.164;2023-05-07T00:26:33;10.60;;;6.50;;
68247;SDS011;55064;49.636;12.164;2023-05-07T00:29:01;12.63;;;6.53;;
68247;SDS011;55064;49.636;12.164;2023-05-07T00:31:27;12.10;;;6.73;;
68247;SDS011;55064;49.636;12.164;2023-05-07T00:33:54;10.60;;;6.07;;
68247;SDS011;55064;49.636;12.164;2023-05-07T00:36:20;11.73;;;6.30;;
68247;SDS011;55064;49.636;12.164;2023-05-07T00:38:51;11.37;;;6.63;;
68247;SDS011;55064;49.636;12.164;2023-05-07T00:41:16;10.80;;;6.13;;
68247;SDS011;55064;49.636;12.164;2023-05-07T00:43:42;12.13;;;6.07;;
68247;SDS011;55064;49.636;12.164;2023-05-07T00:46:08;10.80;;;6.40;;
68247;SDS011;55064;49.636;12.164;2023-05-07T00:48:35;12.20;;;6.30;;
68247;SDS011;55064;49.636;12.164;2023-05-07T00:51:00;11.93;;;6.27;;
68247;SDS011;55064;49.636;12.164;2023-05-07T00:53:26;12.30;;;6.47;;
68247;SDS011;55064;49.636;12.164;2023-05-07T00:55:54;11.15;;;6.78;;
68247;SDS011;55064;49.636;12.164;2023-05-07T00:58:21;11.82;;;6.75;;
68247;SDS011;55064;49.636;12.164;2023-05-07T01:00:47;14.10;;;7.30;;
68247;SDS011;55064;49.636;12.164;2023-05-07T01:03:12;15.60;;;8.00;;
68247;SDS011;55064;49.636;12.164;2023-05-07T01:05:38;14.18;;;7.10;;
68247;SDS011;55064;49.636;12.164;2023-05-07T01:08:03;14.70;;;7.63;;
68247;SDS011;55064;49.636;12.164;2023-05-07T01:10:31;13.57;;;7.53;;
68247;SDS011;55064;49.636;12.164;2023-05-07T01:12:57;13.57;;;7.27;;
68247;SDS011;55064;49.636;12.164;2023-05-07T01:15:27;14.68;;;8.00;;
68247;SDS011;55064;49.636;12.164;2023-05-07T01:17:52;13.18;;;7.57;;
68247;SDS011;55064;49.636;12.164;2023-05-07T01:20:19;15.30;;;7.70;;
68247;SDS011;55064;49.636;12.164;2023-05-07T01:22:45;13.35;;;7.18;;
68247;SDS011;55064;49.636;12.164;2023-05-07T01:25:11;14.25;;;7.70;;
68247;SDS011;55064;49.636;12.164;2023-05-07T01:27:36;12.97;;;7.47;;
68247;SDS011;55064;49.636;12.164;2023-05-07T01:30:05;15.63;;;9.07;;
68247;SDS011;55064;49.636;12.164;2023-05-07T01:35:02;15.98;;;8.30;;
68247;SDS011;55064;49.636;12.164;2023-05-07T01:37:34;13.70;;;7.53;;
68247;SDS011;55064;49.636;12.164;2023-05-07T01:40:02;12.97;;;7.47;;
68247;SDS011;55064;49.636;12.164;2023-05-07T01:42:28;14.13;;;7.63;;
68247;SDS011;55064;49.636;12.164;2023-05-07T01:44:57;14.30;;;7.75;;
68247;SDS011;55064;49.636;12.164;2023-05-07T01:47:25;15.52;;;7.75;;
68247;SDS011;55064;49.636;12.164;2023-05-07T01:49:53;16.07;;;8.50;;
68247;SDS011;55064;49.636;12.164;2023-05-07T01:52:24;13.80;;;7.55;;
68247;SDS011;55064;49.636;12.164;2023-05-07T01:54:52;12.18;;;7.40;;
68247;SDS011;55064;49.636;12.164;2023-05-07T01:57:17;15.67;;;8.30;;
68247;SDS011;55064;49.636;12.164;2023-05-07T01:59:43;15.97;;;8.23;;
68247;SDS011;55064;49.636;12.164;2023-05-07T02:02:10;14.30;;;8.18;;
68247;SDS011;55064;49.636;12.164;2023-05-07T02:04:36;13.77;;;7.97;;
68247;SDS011;55064;49.636;12.164;2023-05-07T02:07:01;13.82;;;8.25;;
68247;SDS011;55064;49.636;12.164;2023-05-07T02:09:28;14.37;;;8.10;;
68247;SDS011;55064;49.636;12.164;2023-05-07T02:11:59;14.23;;;8.07;;
68247;SDS011;55064;49.636;12.164;2023-05-07T02:14:24;17.17;;;8.80;;
68247;SDS011;55064;49.636;12.164;2023-05-07T02:16:53;12.80;;;7.82;;
68247;SDS011;55064;49.636;12.164;2023-05-07T02:19:20;16.13;;;8.45;;
68247;SDS011;55064;49.636;12.164;2023-05-07T02:21:52;17.33;;;8.32;;
68247;SDS011;55064;49.636;12.164;2023-05-07T02:24:18;15.68;;;8.05;;
68247;SDS011;55064;49.636;12.164;2023-05-07T02:26:43;17.53;;;8.53;;
68247;SDS011;55064;49.636;12.164;2023-05-07T02:29:08;16.13;;;8.30;;
68247;SDS011;55064;49.636;12.164;2023-05-07T02:31:34;15.17;;;8.27;;
68247;SDS011;55064;49.636;12.164;2023-05-07T02:34:01;13.00;;;7.47;;
68247;SDS011;55064;49.636;12.164;2023-05-07T02:36:27;14.47;;;7.90;;
68247;SDS011;55064;49.636;12.164;2023-05-07T02:38:52;17.48;;;8.68;;
68247;SDS011;55064;49.636;12.164;2023-05-07T02:41:19;14.00;;;7.83;;
68247;SDS011;55064;49.636;12.164;2023-05-07T02:43:45;16.20;;;8.10;;
68247;SDS011;55064;49.636;12.164;2023-05-07T02:46:10;14.90;;;8.23;;
68247;SDS011;55064;49.636;12.164;2023-05-07T02:48:37;13.27;;;7.80;;
68247;SDS011;55064;49.636;12.164;2023-05-07T02:51:03;14.55;;;8.73;;
68247;SDS011;55064;49.636;12.164;2023-05-07T02:53:28;16.25;;;8.82;;
68247;SDS011;55064;49.636;12.164;2023-05-07T02:55:57;16.77;;;8.87;;
68247;SDS011;55064;49.636;12.164;2023-05-07T02:58:27;15.55;;;8.48;;
68247;SDS011;55064;49.636;12.164;2023-05-07T03:00:53;15.80;;;8.98;;
68247;SDS011;55064;49.636;12.164;2023-05-07T03:03:21;19.48;;;11.43;;
68247;SDS011;55064;49.636;12.164;2023-05-07T03:05:49;14.18;;;8.40;;
68247;SDS011;55064;49.636;12.164;2023-05-07T03:08:20;14.93;;;8.50;;
68247;SDS011;55064;49.636;12.164;2023-05-07T03:10:46;16.45;;;9.95;;
68247;SDS011;55064;49.636;12.164;2023-05-07T03:13:12;16.02;;;9.13;;
68247;SDS011;55064;49.636;12.164;2023-05-07T03:15:37;18.07;;;10.63;;
68247;SDS011;55064;49.636;12.164;2023-05-07T03:18:02;17.80;;;10.23;;
68247;SDS011;55064;49.636;12.164;2023-05-07T03:20:30;15.90;;;9.63;;
68247;SDS011;55064;49.636;12.164;2023-05-07T03:22:55;16.77;;;9.87;;
68247;SDS011;55064;49.636;12.164;2023-05-07T03:25:21;16.20;;;9.50;;
68247;SDS011;55064;49.636;12.164;2023-05-07T03:27:46;17.60;;;9.57;;
68247;SDS011;55064;49.636;12.164;2023-05-07T03:30:14;16.50;;;8.65;;
68247;SDS011;55064;49.636;12.164;2023-05-07T03:32:39;15.17;;;8.30;;
68247;SDS011;55064;49.636;12.164;2023-05-07T03:35:05;15.37;;;8.37;;
68247;SDS011;55064;49.636;12.164;2023-05-07T03:37:32;15.93;;;8.45;;
68247;SDS011;55064;49.636;12.164;2023-05-07T03:39:59;14.95;;;8.73;;
68247;SDS011;55064;49.636;12.164;2023-05-07T03:42:24;15.40;;;8.37;;
68247;SDS011;55064;49.636;12.164;2023-05-07T03:44:58;16.10;;;8.88;;
68247;SDS011;55064;49.636;12.164;2023-05-07T03:47:25;14.98;;;8.40;;
68247;SDS011;55064;49.636;12.164;2023-05-07T03:49:51;15.60;;;8.73;;
68247;SDS011;55064;49.636;12.164;2023-05-07T03:52:17;17.73;;;9.18;;
68247;SDS011;55064;49.636;12.164;2023-05-07T03:54:47;15.95;;;9.40;;
68247;SDS011;55064;49.636;12.164;2023-05-07T03:57:13;15.75;;;9.25;;
68247;SDS011;55064;49.636;12.164;2023-05-07T03:59:38;15.57;;;8.90;;
68247;SDS011;55064;49.636;12.164;2023-05-07T04:02:04;16.40;;;9.37;;
68247;SDS011;55064;49.636;12.164;2023-05-07T04:04:30;17.30;;;9.43;;
68247;SDS011;55064;49.636;12.164;2023-05-07T04:07:00;15.63;;;9.95;;
68247;SDS011;55064;49.636;12.164;2023-05-07T04:09:25;16.13;;;9.10;;
68247;SDS011;55064;49.636;12.164;2023-05-07T04:11:53;17.40;;;9.50;;
68247;SDS011;55064;49.636;12.164;2023-05-07T04:14:19;17.30;;;9.20;;
68247;SDS011;55064;49.636;12.164;2023-05-07T04:16:47;16.83;;;9.20;;
68247;SDS011;55064;49.636;12.164;2023-05-07T04:19:18;17.40;;;9.00;;
68247;SDS011;55064;49.636;12.164;2023-05-07T04:21:45;16.77;;;9.03;;
68247;SDS011;55064;49.636;12.164;2023-05-07T04:24:10;16.02;;;9.85;;
68247;SDS011;55064;49.636;12.164;2023-05-07T04:26:36;17.13;;;9.53;;
68247;SDS011;55064;49.636;12.164;2023-05-07T04:29:02;16.10;;;9.35;;
68247;SDS011;55064;49.636;12.164;2023-05-07T04:31:30;15.65;;;9.50;;
68247;SDS011;55064;49.636;12.164;2023-05-07T04:34:00;17.00;;;8.98;;
68247;SDS011;55064;49.636;12.164;2023-05-07T04:36:27;18.38;;;9.27;;
68247;SDS011;55064;49.636;12.164;2023-05-07T04:38:54;15.23;;;8.87;;
68247;SDS011;55064;49.636;12.164;2023-05-07T04:41:20;17.17;;;9.38;;
68247;SDS011;55064;49.636;12.164;2023-05-07T04:44:05;16.55;;;8.98;;
68247;SDS011;55064;49.636;12.164;2023-05-07T04:46:38;19.30;;;10.13;;
68247;SDS011;55064;49.636;12.164;2023-05-07T04:52:25;20.75;;;9.50;;
68247;SDS011;55064;49.636;12.164;2023-05-07T04:58:13;18.13;;;10.25;;
68247;SDS011;55064;49.636;12.164;2023-05-07T05:10:24;17.08;;;9.55;;
68247;SDS011;55064;49.636;12.164;2023-05-07T05:16:13;17.20;;;9.30;;
68247;SDS011;55064;49.636;12.164;2023-05-07T05:28:34;18.35;;;9.93;;
68247;SDS011;55064;49.636;12.164;2023-05-07T05:37:49;18.20;;;9.82;;
68247;SDS011;55064;49.636;12.164;2023-05-07T05:50:20;21.02;;;10.43;;
68247;SDS011;55064;49.636;12.164;2023-05-07T05:56:07;18.98;;;10.25;;
68247;SDS011;55064;49.636;12.164;2023-05-07T05:58:35;18.83;;;10.00;;
68247;SDS011;55064;49.636;12.164;2023-05-07T06:07:53;19.02;;;10.25;;
68247;SDS011;55064;49.636;12.164;2023-05-07T06:13:43;19.77;;;10.73;;
68247;SDS011;55064;49.636;12.164;2023-05-07T06:16:29;19.48;;;10.20;;
68247;SDS011;55064;49.636;12.164;2023-05-07T06:21:57;19.48;;;10.32;;
68247;SDS011;55064;49.636;12.164;2023-05-07T06:24:23;19.37;;;10.43;;
68247;SDS011;55064;49.636;12.164;2023-05-07T06:26:50;21.15;;;12.20;;
68247;SDS011;55064;49.636;12.164;2023-05-07T06:29:16;18.95;;;10.07;;
68247;SDS011;55064;49.636;12.164;2023-05-07T06:31:41;19.83;;;10.17;;
68247;SDS011;55064;49.636;12.164;2023-05-07T06:34:18;18.60;;;9.90;;
68247;SDS011;55064;49.636;12.164;2023-05-07T06:40:10;22.50;;;10.45;;
68247;SDS011;55064;49.636;12.164;2023-05-07T06:45:58;20.35;;;9.02;;
68247;SDS011;55064;49.636;12.164;2023-05-07T06:51:45;19.48;;;9.70;;
68247;SDS011;55064;49.636;12.164;2023-05-07T06:54:10;20.33;;;9.57;;
68247;SDS011;55064;49.636;12.164;2023-05-07T06:56:54;23.35;;;9.95;;
68247;SDS011;55064;49.636;12.164;2023-05-07T07:02:19;18.35;;;9.73;;
68247;SDS011;55064;49.636;12.164;2023-05-07T07:04:47;19.27;;;9.90;;
68247;SDS011;55064;49.636;12.164;2023-05-07T07:07:18;19.48;;;10.30;;
68247;SDS011;55064;49.636;12.164;2023-05-07T07:19:18;19.55;;;9.55;;
68247;SDS011;55064;49.636;12.164;2023-05-07T07:25:07;20.45;;;9.55;;
68247;SDS011;55064;49.636;12.164;2023-05-07T07:27:35;18.57;;;7.37;;
68247;SDS011;55064;49.636;12.164;2023-05-07T07:36:44;16.73;;;8.60;;
68247;SDS011;55064;49.636;12.164;2023-05-07T07:45:21;18.40;;;9.40;;
68247;SDS011;55064;49.636;12.164;2023-05-07T07:47:47;18.70;;;8.70;;
68247;SDS011;55064;49.636;12.164;2023-05-07T07:53:15;19.47;;;9.27;;
68247;SDS011;55064;49.636;12.164;2023-05-07T07:55:41;17.90;;;9.13;;
68247;SDS011;55064;49.636;12.164;2023-05-07T07:58:09;16.88;;;9.52;;
68247;SDS011;55064;49.636;12.164;2023-05-07T08:00:48;17.80;;;9.65;;
68247;SDS011;55064;49.636;12.164;2023-05-07T08:03:25;17.10;;;9.10;;
68247;SDS011;55064;49.636;12.164;2023-05-07T08:05:57;17.47;;;8.43;;
68247;SDS011;55064;49.636;12.164;2023-05-07T08:08:23;17.02;;;8.35;;
68247;SDS011;55064;49.636;12.164;2023-05-07T08:11:05;16.60;;;8.90;;
68247;SDS011;55064;49.636;12.164;2023-05-07T08:18:52;18.40;;;8.83;;
68247;SDS011;55064;49.636;12.164;2023-05-07T08:21:25;14.98;;;8.50;;
68247;SDS011;55064;49.636;12.164;2023-05-07T08:24:04;16.45;;;9.20;;
68247;SDS011;55064;49.636;12.164;2023-05-07T08:26:31;16.83;;;9.20;;
68247;SDS011;55064;49.636;12.164;2023-05-07T08:28:56;16.15;;;8.85;;
68247;SDS011;55064;49.636;12.164;2023-05-07T08:31:30;14.07;;;6.90;;
68247;SDS011;55064;49.636;12.164;2023-05-07T08:33:57;14.88;;;7.00;;
68247;SDS011;55064;49.636;12.164;2023-05-07T08:36:23;17.37;;;8.77;;
68247;SDS011;55064;49.636;12.164;2023-05-07T08:38:50;15.57;;;8.82;;
68247;SDS011;55064;49.636;12.164;2023-05-07T08:59:53;16.13;;;8.05;;
68247;SDS011;55064;49.636;12.164;2023-05-07T09:05:40;17.85;;;8.60;;
68247;SDS011;55064;49.636;12.164;2023-05-07T09:11:11;15.77;;;8.93;;
68247;SDS011;55064;49.636;12.164;2023-05-07T09:13:55;15.05;;;8.27;;
68247;SDS011;55064;49.636;12.164;2023-05-07T09:16:24;15.80;;;8.53;;
68247;SDS011;55064;49.636;12.164;2023-05-07T09:35:15;16.00;;;8.88;;
68247;SDS011;55064;49.636;12.164;2023-05-07T09:41:08;12.98;;;6.70;;
68247;SDS011;55064;49.636;12.164;2023-05-07T09:43:55;12.90;;;7.60;;
68247;SDS011;55064;49.636;12.164;2023-05-07T09:46:30;17.00;;;7.53;;
68247;SDS011;55064;49.636;12.164;2023-05-07T09:48:59;13.25;;;7.47;;
68247;SDS011;55064;49.636;12.164;2023-05-07T09:51:48;12.18;;;6.60;;
68247;SDS011;55064;49.636;12.164;2023-05-07T09:54:23;14.75;;;8.18;;
68247;SDS011;55064;49.636;12.164;2023-05-07T10:03:24;12.57;;;7.30;;
68247;SDS011;55064;49.636;12.164;2023-05-07T10:12:21;14.95;;;7.85;;
68247;SDS011;55064;49.636;12.164;2023-05-07T10:18:08;12.95;;;7.60;;
68247;SDS011;55064;49.636;12.164;2023-05-07T10:20:36;13.40;;;8.07;;
68247;SDS011;55064;49.636;12.164;2023-05-07T10:29:33;13.35;;;7.07;;
68247;SDS011;55064;49.636;12.164;2023-05-07T10:38:44;13.37;;;7.43;;
68247;SDS011;55064;49.636;12.164;2023-05-07T10:44:45;12.65;;;7.20;;
68247;SDS011;55064;49.636;12.164;2023-05-07T10:47:11;13.85;;;7.50;;
68247;SDS011;55064;49.636;12.164;2023-05-07T10:56:38;12.00;;;7.60;;
68247;SDS011;55064;49.636;12.164;2023-05-07T11:02:06;12.10;;;7.35;;
68247;SDS011;55064;49.636;12.164;2023-05-07T11:07:55;12.77;;;6.97;;
68247;SDS011;55064;49.636;12.164;2023-05-07T11:17:10;10.63;;;6.72;;
68247;SDS011;55064;49.636;12.164;2023-05-07T11:28:46;10.65;;;6.03;;
68247;SDS011;55064;49.636;12.164;2023-05-07T11:36:43;10.20;;;6.00;;
68247;SDS011;55064;49.636;12.164;2023-05-07T11:39:28;10.80;;;5.47;;
68247;SDS011;55064;49.636;12.164;2023-05-07T11:48:50;11.68;;;5.15;;
68247;SDS011;55064;49.636;12.164;2023-05-07T12:06:31;7.60;;;3.97;;
68247;SDS011;55064;49.636;12.164;2023-05-07T12:09:01;8.50;;;4.53;;
68247;SDS011;55064;49.636;12.164;2023-05-07T12:11:28;8.35;;;4.72;;
68247;SDS011;55064;49.636;12.164;2023-05-07T12:14:01;8.90;;;4.80;;
68247;SDS011;55064;49.636;12.164;2023-05-07T12:16:43;9.05;;;4.60;;
68247;SDS011;55064;49.636;12.164;2023-05-07T12:19:16;7.53;;;3.85;;
68247;SDS011;55064;49.636;12.164;2023-05-07T12:21:57;9.00;;;4.85;;
68247;SDS011;55064;49.636;12.164;2023-05-07T12:27:37;8.70;;;3.80;;
68247;SDS011;55064;49.636;12.164;2023-05-07T12:30:04;7.60;;;4.50;;
68247;SDS011;55064;49.636;12.164;2023-05-07T12:32:34;8.00;;;4.32;;
68247;SDS011;55064;49.636;12.164;2023-05-07T12:38:10;8.32;;;4.43;;
68247;SDS011;55064;49.636;12.164;2023-05-07T12:40:44;8.37;;;4.87;;
68247;SDS011;55064;49.636;12.164;2023-05-07T12:43:30;8.68;;;4.40;;
68247;SDS011;55064;49.636;12.164;2023-05-07T12:52:07;8.10;;;4.72;;
68247;SDS011;55064;49.636;12.164;2023-05-07T13:03:36;10.88;;;4.60;;
68247;SDS011;55064;49.636;12.164;2023-05-07T13:06:09;8.15;;;4.57;;
68247;SDS011;55064;49.636;12.164;2023-05-07T13:08:48;8.20;;;4.30;;
68247;SDS011;55064;49.636;12.164;2023-05-07T13:11:14;8.32;;;4.75;;
68247;SDS011;55064;49.636;12.164;2023-05-07T13:13:40;8.38;;;4.28;;
68247;SDS011;55064;49.636;12.164;2023-05-07T13:16:13;8.27;;;4.70;;
68247;SDS011;55064;49.636;12.164;2023-05-07T13:21:24;9.13;;;4.60;;
68247;SDS011;55064;49.636;12.164;2023-05-07T13:24:04;8.02;;;4.35;;
68247;SDS011;55064;49.636;12.164;2023-05-07T13:26:33;7.50;;;4.05;;
68247;SDS011;55064;49.636;12.164;2023-05-07T13:29:07;7.60;;;4.00;;
68247;SDS011;55064;49.636;12.164;2023-05-07T13:34:16;15.80;;;4.37;;
68247;SDS011;55064;49.636;12.164;2023-05-07T13:36:56;9.07;;;4.00;;
68247;SDS011;55064;49.636;12.164;2023-05-07T13:39:21;7.90;;;3.73;;
68247;SDS011;55064;49.636;12.164;2023-05-07T13:41:48;8.25;;;4.15;;
68247;SDS011;55064;49.636;12.164;2023-05-07T13:44:16;8.93;;;3.80;;
68247;SDS011;55064;49.636;12.164;2023-05-07T13:49:41;6.95;;;3.50;;
68247;SDS011;55064;49.636;12.164;2023-05-07T13:52:19;7.65;;;3.38;;
68247;SDS011;55064;49.636;12.164;2023-05-07T14:13:05;8.17;;;4.10;;
68247;SDS011;55064;49.636;12.164;2023-05-07T14:15:37;6.97;;;3.85;;
68247;SDS011;55064;49.636;12.164;2023-05-07T14:21:24;8.52;;;3.97;;
68247;SDS011;55064;49.636;12.164;2023-05-07T14:23:58;7.77;;;3.57;;
68247;SDS011;55064;49.636;12.164;2023-05-07T14:29:46;9.75;;;4.40;;
68247;SDS011;55064;49.636;12.164;2023-05-07T14:38:47;7.70;;;3.72;;
68247;SDS011;55064;49.636;12.164;2023-05-07T14:41:21;9.38;;;4.55;;
68247;SDS011;55064;49.636;12.164;2023-05-07T14:55:28;8.00;;;3.60;;
68247;SDS011;55064;49.636;12.164;2023-05-07T14:57:53;10.20;;;4.07;;
68247;SDS011;55064;49.636;12.164;2023-05-07T15:00:19;8.27;;;3.67;;
68247;SDS011;55064;49.636;12.164;2023-05-07T15:02:44;7.00;;;3.20;;
68247;SDS011;55064;49.636;12.164;2023-05-07T15:08:32;7.18;;;3.40;;
68247;SDS011;55064;49.636;12.164;2023-05-07T15:11:17;8.37;;;3.23;;
68247;SDS011;55064;49.636;12.164;2023-05-07T15:13:55;6.55;;;2.80;;
68247;SDS011;55064;49.636;12.164;2023-05-07T15:19:16;10.48;;;3.08;;
68247;SDS011;55064;49.636;12.164;2023-05-07T15:21:44;7.00;;;3.08;;
68247;SDS011;55064;49.636;12.164;2023-05-07T15:24:09;6.40;;;2.90;;
68247;SDS011;55064;49.636;12.164;2023-05-07T15:26:35;6.47;;;2.92;;
68247;SDS011;55064;49.636;12.164;2023-05-07T15:29:07;7.20;;;3.13;;
68247;SDS011;55064;49.636;12.164;2023-05-07T15:31:35;7.32;;;3.38;;
68247;SDS011;55064;49.636;12.164;2023-05-07T15:34:15;6.07;;;2.90;;
68247;SDS011;55064;49.636;12.164;2023-05-07T15:36:43;7.55;;;3.08;;
68247;SDS011;55064;49.636;12.164;2023-05-07T15:39:11;6.78;;;2.60;;
68247;SDS011;55064;49.636;12.164;2023-05-07T15:41:36;6.30;;;3.10;;
68247;SDS011;55064;49.636;12.164;2023-05-07T15:44:02;6.00;;;2.73;;
68247;SDS011;55064;49.636;12.164;2023-05-07T15:46:30;6.28;;;2.97;;
68247;SDS011;55064;49.636;12.164;2023-05-07T15:48:56;6.75;;;3.25;;
68247;SDS011;55064;49.636;12.164;2023-05-07T15:51:22;7.00;;;2.83;;
68247;SDS011;55064;49.636;12.164;2023-05-07T15:53:58;7.22;;;3.10;;
68247;SDS011;55064;49.636;12.164;2023-05-07T15:56:31;7.57;;;3.47;;
68247;SDS011;55064;49.636;12.164;2023-05-07T15:59:01;6.90;;;3.10;;
68247;SDS011;55064;49.636;12.164;2023-05-07T16:01:28;7.07;;;3.10;;
68247;SDS011;55064;49.636;12.164;2023-05-07T16:03:56;6.82;;;3.17;;
68247;SDS011;55064;49.636;12.164;2023-05-07T16:06:21;5.78;;;2.50;;
68247;SDS011;55064;49.636;12.164;2023-05-07T16:08:58;7.20;;;2.90;;
68247;SDS011;55064;49.636;12.164;2023-05-07T16:14:45;6.75;;;3.20;;
68247;SDS011;55064;49.636;12.164;2023-05-07T16:17:11;9.07;;;3.23;;
68247;SDS011;55064;49.636;12.164;2023-05-07T16:19:51;6.18;;;2.80;;
68247;SDS011;55064;49.636;12.164;2023-05-07T16:22:23;6.10;;;2.47;;
68247;SDS011;55064;49.636;12.164;2023-05-07T16:24:52;7.43;;;3.40;;
68247;SDS011;55064;49.636;12.164;2023-05-07T16:27:25;5.95;;;2.83;;
68247;SDS011;55064;49.636;12.164;2023-05-07T16:29:52;6.85;;;2.90;;
68247;SDS011;55064;49.636;12.164;2023-05-07T16:32:18;8.23;;;3.20;;
68247;SDS011;55064;49.636;12.164;2023-05-07T16:34:50;6.22;;;2.85;;
68247;SDS011;55064;49.636;12.164;2023-05-07T16:37:21;5.80;;;2.58;;
68247;SDS011;55064;49.636;12.164;2023-05-07T16:39:47;5.97;;;2.60;;
68247;SDS011;55064;49.636;12.164;2023-05-07T16:42:26;5.90;;;2.50;;
68247;SDS011;55064;49.636;12.164;2023-05-07T16:44:52;5.90;;;2.60;;
68247;SDS011;55064;49.636;12.164;2023-05-07T16:50:15;6.78;;;2.72;;
68247;SDS011;55064;49.636;12.164;2023-05-07T16:58:42;5.63;;;2.63;;
68247;SDS011;55064;49.636;12.164;2023-05-07T17:01:14;7.05;;;2.70;;
68247;SDS011;55064;49.636;12.164;2023-05-07T17:09:28;5.35;;;2.20;;
68247;SDS011;55064;49.636;12.164;2023-05-07T17:18:31;5.50;;;2.30;;
68247;SDS011;55064;49.636;12.164;2023-05-07T17:20:58;5.33;;;2.13;;
68247;SDS011;55064;49.636;12.164;2023-05-07T17:29:39;5.88;;;2.50;;
68247;SDS011;55064;49.636;12.164;2023-05-07T17:32:05;7.03;;;2.73;;
68247;SDS011;55064;49.636;12.164;2023-05-07T17:34:37;5.57;;;2.57;;
68247;SDS011;55064;49.636;12.164;2023-05-07T17:37:10;6.50;;;2.50;;
68247;SDS011;55064;49.636;12.164;2023-05-07T17:39:35;5.85;;;2.53;;
68247;SDS011;55064;49.636;12.164;2023-05-07T17:42:01;6.00;;;2.50;;
68247;SDS011;55064;49.636;12.164;2023-05-07T17:44:26;5.50;;;2.30;;
68247;SDS011;55064;49.636;12.164;2023-05-07T17:46:55;5.60;;;2.53;;
68247;SDS011;55064;49.636;12.164;2023-05-07T17:49:21;6.30;;;3.00;;
68247;SDS011;55064;49.636;12.164;2023-05-07T17:51:47;6.40;;;2.50;;
68247;SDS011;55064;49.636;12.164;2023-05-07T17:54:12;6.88;;;2.60;;
68247;SDS011;55064;49.636;12.164;2023-05-07T17:56:38;6.67;;;2.83;;
68247;SDS011;55064;49.636;12.164;2023-05-07T17:59:14;5.95;;;2.95;;
68247;SDS011;55064;49.636;12.164;2023-05-07T18:01:42;6.23;;;2.93;;
68247;SDS011;55064;49.636;12.164;2023-05-07T18:04:14;7.32;;;3.15;;
68247;SDS011;55064;49.636;12.164;2023-05-07T18:06:46;6.60;;;3.33;;
68247;SDS011;55064;49.636;12.164;2023-05-07T18:09:11;7.88;;;3.40;;
68247;SDS011;55064;49.636;12.164;2023-05-07T18:11:37;7.35;;;3.63;;
68247;SDS011;55064;49.636;12.164;2023-05-07T18:14:02;6.33;;;3.67;;
68247;SDS011;55064;49.636;12.164;2023-05-07T18:16:29;7.77;;;4.10;;
68247;SDS011;55064;49.636;12.164;2023-05-07T18:18:54;7.57;;;3.97;;
68247;SDS011;55064;49.636;12.164;2023-05-07T18:21:25;8.53;;;4.30;;
68247;SDS011;55064;49.636;12.164;2023-05-07T18:23:53;7.43;;;3.83;;
68247;SDS011;55064;49.636;12.164;2023-05-07T18:26:21;7.32;;;3.97;;
68247;SDS011;55064;49.636;12.164;2023-05-07T18:28:50;7.43;;;3.65;;
68247;SDS011;55064;49.636;12.164;2023-05-07T18:31:16;7.80;;;4.00;;
68247;SDS011;55064;49.636;12.164;2023-05-07T18:33:41;6.70;;;3.13;;
68247;SDS011;55064;49.636;12.164;2023-05-07T18:36:06;6.73;;;3.50;;
68247;SDS011;55064;49.636;12.164;2023-05-07T18:38:32;7.30;;;3.60;;
68247;SDS011;55064;49.636;12.164;2023-05-07T18:41:04;6.70;;;3.42;;
68247;SDS011;55064;49.636;12.164;2023-05-07T18:43:32;7.95;;;3.80;;
68247;SDS011;55064;49.636;12.164;2023-05-07T18:45:58;7.83;;;3.60;;
68247;SDS011;55064;49.636;12.164;2023-05-07T18:48:23;6.50;;;3.08;;
68247;SDS011;55064;49.636;12.164;2023-05-07T18:50:51;7.07;;;3.40;;
68247;SDS011;55064;49.636;12.164;2023-05-07T18:53:16;6.50;;;3.25;;
68247;SDS011;55064;49.636;12.164;2023-05-07T18:55:47;6.90;;;3.40;;
68247;SDS011;55064;49.636;12.164;2023-05-07T18:58:16;8.00;;;3.60;;
68247;SDS011;55064;49.636;12.164;2023-05-07T19:00:44;7.80;;;3.57;;
68247;SDS011;55064;49.636;12.164;2023-05-07T19:03:12;8.10;;;4.00;;
68247;SDS011;55064;49.636;12.164;2023-05-07T19:05:41;8.07;;;3.47;;
68247;SDS011;55064;49.636;12.164;2023-05-07T19:08:09;8.77;;;4.38;;
68247;SDS011;55064;49.636;12.164;2023-05-07T19:10:36;8.63;;;4.07;;
68247;SDS011;55064;49.636;12.164;2023-05-07T19:13:01;7.63;;;3.90;;
68247;SDS011;55064;49.636;12.164;2023-05-07T19:15:26;9.03;;;4.30;;
68247;SDS011;55064;49.636;12.164;2023-05-07T19:17:52;7.63;;;3.70;;
68247;SDS011;55064;49.636;12.164;2023-05-07T19:20:19;8.15;;;3.60;;
68247;SDS011;55064;49.636;12.164;2023-05-07T19:22:45;7.55;;;3.60;;
68247;SDS011;55064;49.636;12.164;2023-05-07T19:25:11;7.93;;;4.00;;
68247;SDS011;55064;49.636;12.164;2023-05-07T19:27:37;7.80;;;3.92;;
68247;SDS011;55064;49.636;12.164;2023-05-07T19:30:03;8.70;;;4.77;;
68247;SDS011;55064;49.636;12.164;2023-05-07T19:32:29;8.18;;;4.13;;
68247;SDS011;55064;49.636;12.164;2023-05-07T19:34:55;8.60;;;4.20;;
68247;SDS011;55064;49.636;12.164;2023-05-07T19:37:21;8.70;;;4.00;;
68247;SDS011;55064;49.636;12.164;2023-05-07T19:39:52;8.02;;;4.13;;
68247;SDS011;55064;49.636;12.164;2023-05-07T19:42:21;8.87;;;4.20;;
68247;SDS011;55064;49.636;12.164;2023-05-07T19:44:49;8.07;;;4.50;;
68247;SDS011;55064;49.636;12.164;2023-05-07T19:47:15;10.05;;;4.18;;
68247;SDS011;55064;49.636;12.164;2023-05-07T19:49:50;7.18;;;3.35;;
68247;SDS011;55064;49.636;12.164;2023-05-07T19:52:15;6.82;;;3.42;;
68247;SDS011;55064;49.636;12.164;2023-05-07T19:54:42;8.03;;;3.90;;
68247;SDS011;55064;49.636;12.164;2023-05-07T19:57:09;9.48;;;4.97;;
68247;SDS011;55064;49.636;12.164;2023-05-07T19:59:35;7.88;;;4.03;;
68247;SDS011;55064;49.636;12.164;2023-05-07T20:02:02;8.52;;;4.50;;
68247;SDS011;55064;49.636;12.164;2023-05-07T20:04:30;7.03;;;3.38;;
68247;SDS011;55064;49.636;12.164;2023-05-07T20:07:03;9.87;;;4.70;;
68247;SDS011;55064;49.636;12.164;2023-05-07T20:09:30;8.95;;;4.88;;
68247;SDS011;55064;49.636;12.164;2023-05-07T20:11:55;8.25;;;4.50;;
68247;SDS011;55064;49.636;12.164;2023-05-07T20:14:29;10.35;;;4.10;;
68247;SDS011;55064;49.636;12.164;2023-05-07T20:16:56;10.82;;;4.53;;
68247;SDS011;55064;49.636;12.164;2023-05-07T20:19:21;7.83;;;3.73;;
68247;SDS011;55064;49.636;12.164;2023-05-07T20:21:50;8.88;;;4.50;;
68247;SDS011;55064;49.636;12.164;2023-05-07T20:24:19;10.20;;;4.30;;
68247;SDS011;55064;49.636;12.164;2023-05-07T20:26:45;9.48;;;4.20;;
68247;SDS011;55064;49.636;12.164;2023-05-07T20:29:10;8.35;;;4.22;;
68247;SDS011;55064;49.636;12.164;2023-05-07T20:31:36;8.67;;;4.20;;
68247;SDS011;55064;49.636;12.164;2023-05-07T20:34:02;7.65;;;4.05;;